sensor_id;sensor_type;location;lat;lon;timestamp;temperature;humidity
32366;DHT22;18837;46.832;16.838;2022-07-22T00:01:51;27.70;56.30
32366;DHT22;18837;46.832;16.838;2022-07-22T00:04:17;27.80;56.60
32366;DHT22;18837;46.832;16.838;2022-07-22T00:06:43;27.70;56.40
32366;DHT22;18837;46.832;16.838;2022-07-22T00:09:08;27.70;56.00
32366;DHT22;18837;46.832;16.838;2022-07-22T00:11:35;27.70;56.50
32366;DHT22;18837;46.832;16.838;2022-07-22T00:14:01;27.70;56.40
32366;DHT22;18837;46.832;16.838;2022-07-22T00:16:26;27.70;56.40
32366;DHT22;18837;46.832;16.838;2022-07-22T00:18:52;27.60;56.40
32366;DHT22;18837;46.832;16.838;2022-07-22T00:21:18;27.60;56.30
32366;DHT22;18837;46.832;16.838;2022-07-22T00:23:44;27.60;56.50
32366;DHT22;18837;46.832;16.838;2022-07-22T00:26:10;27.60;56.40
32366;DHT22;18837;46.832;16.838;2022-07-22T00:28:36;27.60;56.50
32366;DHT22;18837;46.832;16.838;2022-07-22T00:31:02;27.50;56.70
32366;DHT22;18837;46.832;16.838;2022-07-22T00:33:27;27.50;56.70
32366;DHT22;18837;46.832;16.838;2022-07-22T00:35:53;27.50;56.80
32366;DHT22;18837;46.832;16.838;2022-07-22T00:38:19;27.50;56.60
32366;DHT22;18837;46.832;16.838;2022-07-22T00:40:44;27.50;56.70
32366;DHT22;18837;46.832;16.838;2022-07-22T00:43:10;27.50;56.70
32366;DHT22;18837;46.832;16.838;2022-07-22T00:45:36;27.40;56.70
32366;DHT22;18837;46.832;16.838;2022-07-22T00:48:01;27.40;56.80
32366;DHT22;18837;46.832;16.838;2022-07-22T00:50:27;27.40;56.80
32366;DHT22;18837;46.832;16.838;2022-07-22T00:52:53;27.40;57.00
32366;DHT22;18837;46.832;16.838;2022-07-22T00:55:19;27.40;56.90
32366;DHT22;18837;46.832;16.838;2022-07-22T00:57:44;27.40;56.80
32366;DHT22;18837;46.832;16.838;2022-07-22T01:00:14;27.30;56.80
32366;DHT22;18837;46.832;16.838;2022-07-22T01:02:41;27.30;56.90
32366;DHT22;18837;46.832;16.838;2022-07-22T01:05:07;27.30;56.80
32366;DHT22;18837;46.832;16.838;2022-07-22T01:07:33;27.30;56.70
32366;DHT22;18837;46.832;16.838;2022-07-22T01:09:59;27.30;56.90
32366;DHT22;18837;46.832;16.838;2022-07-22T01:12:25;27.30;56.90
32366;DHT22;18837;46.832;16.838;2022-07-22T01:14:50;27.30;56.90
32366;DHT22;18837;46.832;16.838;2022-07-22T01:17:16;27.20;56.80
32366;DHT22;18837;46.832;16.838;2022-07-22T01:19:42;27.20;56.80
32366;DHT22;18837;46.832;16.838;2022-07-22T01:22:08;27.20;56.90
32366;DHT22;18837;46.832;16.838;2022-07-22T01:24:34;27.20;57.00
32366;DHT22;18837;46.832;16.838;2022-07-22T01:27:00;27.20;57.00
32366;DHT22;18837;46.832;16.838;2022-07-22T01:29:26;27.20;57.00
32366;DHT22;18837;46.832;16.838;2022-07-22T01:31:52;27.20;57.00
32366;DHT22;18837;46.832;16.838;2022-07-22T01:34:18;27.20;57.00
32366;DHT22;18837;46.832;16.838;2022-07-22T01:36:44;27.20;57.00
32366;DHT22;18837;46.832;16.838;2022-07-22T01:39:10;27.10;57.10
32366;DHT22;18837;46.832;16.838;2022-07-22T01:41:37;27.10;57.10
32366;DHT22;18837;46.832;16.838;2022-07-22T01:44:03;27.10;57.20
32366;DHT22;18837;46.832;16.838;2022-07-22T01:46:29;27.10;57.30
32366;DHT22;18837;46.832;16.838;2022-07-22T01:48:54;27.10;57.10
32366;DHT22;18837;46.832;16.838;2022-07-22T01:51:20;27.10;57.30
32366;DHT22;18837;46.832;16.838;2022-07-22T01:53:46;27.10;57.20
32366;DHT22;18837;46.832;16.838;2022-07-22T01:56:12;27.10;57.30
32366;DHT22;18837;46.832;16.838;2022-07-22T01:58:38;27.10;57.20
32366;DHT22;18837;46.832;16.838;2022-07-22T02:01:03;27.10;57.30
32366;DHT22;18837;46.832;16.838;2022-07-22T02:03:29;27.00;57.30
32366;DHT22;18837;46.832;16.838;2022-07-22T02:05:55;27.00;57.10
32366;DHT22;18837;46.832;16.838;2022-07-22T02:08:21;27.00;57.10
32366;DHT22;18837;46.832;16.838;2022-07-22T02:10:47;27.00;57.40
32366;DHT22;18837;46.832;16.838;2022-07-22T02:13:13;27.00;57.30
32366;DHT22;18837;46.832;16.838;2022-07-22T02:15:39;27.00;57.30
32366;DHT22;18837;46.832;16.838;2022-07-22T02:18:13;27.00;57.60
32366;DHT22;18837;46.832;16.838;2022-07-22T02:20:39;26.90;57.50
32366;DHT22;18837;46.832;16.838;2022-07-22T02:23:05;26.90;57.40
32366;DHT22;18837;46.832;16.838;2022-07-22T02:25:31;26.90;57.50
32366;DHT22;18837;46.832;16.838;2022-07-22T02:27:57;26.90;57.50
32366;DHT22;18837;46.832;16.838;2022-07-22T02:30:23;26.90;57.50
32366;DHT22;18837;46.832;16.838;2022-07-22T02:32:48;26.90;57.40
32366;DHT22;18837;46.832;16.838;2022-07-22T02:35:14;26.90;57.50
32366;DHT22;18837;46.832;16.838;2022-07-22T02:37:40;26.90;57.50
32366;DHT22;18837;46.832;16.838;2022-07-22T02:40:06;26.90;57.70
32366;DHT22;18837;46.832;16.838;2022-07-22T02:42:33;26.80;57.60
32366;DHT22;18837;46.832;16.838;2022-07-22T02:44:59;26.80;57.60
32366;DHT22;18837;46.832;16.838;2022-07-22T02:47:25;26.80;57.70
32366;DHT22;18837;46.832;16.838;2022-07-22T02:49:51;26.80;57.80
32366;DHT22;18837;46.832;16.838;2022-07-22T02:52:17;26.80;57.80
32366;DHT22;18837;46.832;16.838;2022-07-22T02:54:43;26.80;57.80
32366;DHT22;18837;46.832;16.838;2022-07-22T02:57:09;26.80;57.80
32366;DHT22;18837;46.832;16.838;2022-07-22T02:59:35;26.70;57.90
32366;DHT22;18837;46.832;16.838;2022-07-22T03:02:01;26.70;57.90
32366;DHT22;18837;46.832;16.838;2022-07-22T03:04:27;26.70;58.00
32366;DHT22;18837;46.832;16.838;2022-07-22T03:06:53;26.70;57.90
32366;DHT22;18837;46.832;16.838;2022-07-22T03:09:19;26.70;58.00
32366;DHT22;18837;46.832;16.838;2022-07-22T03:11:44;26.70;58.00
32366;DHT22;18837;46.832;16.838;2022-07-22T03:14:10;26.70;58.30
32366;DHT22;18837;46.832;16.838;2022-07-22T03:16:39;26.70;57.90
32366;DHT22;18837;46.832;16.838;2022-07-22T03:19:05;26.60;58.00
32366;DHT22;18837;46.832;16.838;2022-07-22T03:21:31;26.60;58.20
32366;DHT22;18837;46.832;16.838;2022-07-22T03:23:57;26.60;58.30
32366;DHT22;18837;46.832;16.838;2022-07-22T03:26:23;26.60;58.20
32366;DHT22;18837;46.832;16.838;2022-07-22T03:28:50;26.60;58.10
32366;DHT22;18837;46.832;16.838;2022-07-22T03:31:16;26.50;58.10
32366;DHT22;18837;46.832;16.838;2022-07-22T03:33:41;26.60;58.30
32366;DHT22;18837;46.832;16.838;2022-07-22T03:36:07;26.50;58.20
32366;DHT22;18837;46.832;16.838;2022-07-22T03:38:34;26.60;58.30
32366;DHT22;18837;46.832;16.838;2022-07-22T03:41:00;26.50;58.50
32366;DHT22;18837;46.832;16.838;2022-07-22T03:43:26;26.50;58.20
32366;DHT22;18837;46.832;16.838;2022-07-22T03:45:52;26.50;58.30
32366;DHT22;18837;46.832;16.838;2022-07-22T03:48:17;26.50;58.30
32366;DHT22;18837;46.832;16.838;2022-07-22T03:50:43;26.50;58.40
32366;DHT22;18837;46.832;16.838;2022-07-22T03:53:09;26.50;58.40
32366;DHT22;18837;46.832;16.838;2022-07-22T03:55:35;26.40;58.90
32366;DHT22;18837;46.832;16.838;2022-07-22T03:58:01;26.40;58.40
32366;DHT22;18837;46.832;16.838;2022-07-22T04:00:26;26.40;58.40
32366;DHT22;18837;46.832;16.838;2022-07-22T04:02:52;26.40;58.20
32366;DHT22;18837;46.832;16.838;2022-07-22T04:05:18;26.40;58.40
32366;DHT22;18837;46.832;16.838;2022-07-22T04:07:44;26.40;58.50
32366;DHT22;18837;46.832;16.838;2022-07-22T04:10:10;26.40;58.30
32366;DHT22;18837;46.832;16.838;2022-07-22T04:12:37;26.40;58.80
32366;DHT22;18837;46.832;16.838;2022-07-22T04:15:04;26.40;58.70
32366;DHT22;18837;46.832;16.838;2022-07-22T04:17:30;26.40;58.60
32366;DHT22;18837;46.832;16.838;2022-07-22T04:19:56;26.40;58.60
32366;DHT22;18837;46.832;16.838;2022-07-22T04:22:23;26.30;58.40
32366;DHT22;18837;46.832;16.838;2022-07-22T04:24:48;26.40;58.70
32366;DHT22;18837;46.832;16.838;2022-07-22T04:27:14;26.40;58.60
32366;DHT22;18837;46.832;16.838;2022-07-22T04:29:40;26.40;58.80
32366;DHT22;18837;46.832;16.838;2022-07-22T04:32:05;26.30;58.70
32366;DHT22;18837;46.832;16.838;2022-07-22T04:34:31;26.30;58.80
32366;DHT22;18837;46.832;16.838;2022-07-22T04:36:58;26.30;58.80
32366;DHT22;18837;46.832;16.838;2022-07-22T04:39:23;26.40;58.90
32366;DHT22;18837;46.832;16.838;2022-07-22T04:41:50;26.40;58.70
32366;DHT22;18837;46.832;16.838;2022-07-22T04:44:16;26.30;59.00
32366;DHT22;18837;46.832;16.838;2022-07-22T04:46:42;26.30;58.50
32366;DHT22;18837;46.832;16.838;2022-07-22T04:49:08;26.30;58.60
32366;DHT22;18837;46.832;16.838;2022-07-22T04:51:34;26.30;58.70
32366;DHT22;18837;46.832;16.838;2022-07-22T04:53:59;26.30;58.80
32366;DHT22;18837;46.832;16.838;2022-07-22T04:56:25;26.30;58.70
32366;DHT22;18837;46.832;16.838;2022-07-22T04:58:51;26.30;58.80
32366;DHT22;18837;46.832;16.838;2022-07-22T05:01:17;26.30;58.90
32366;DHT22;18837;46.832;16.838;2022-07-22T05:03:43;26.30;58.70
32366;DHT22;18837;46.832;16.838;2022-07-22T05:06:09;26.30;58.60
32366;DHT22;18837;46.832;16.838;2022-07-22T05:08:35;26.30;58.70
32366;DHT22;18837;46.832;16.838;2022-07-22T05:11:01;26.30;58.90
32366;DHT22;18837;46.832;16.838;2022-07-22T05:13:27;26.30;58.90
32366;DHT22;18837;46.832;16.838;2022-07-22T05:15:53;26.30;58.90
32366;DHT22;18837;46.832;16.838;2022-07-22T05:18:19;26.30;58.70
32366;DHT22;18837;46.832;16.838;2022-07-22T05:20:45;26.30;59.00
32366;DHT22;18837;46.832;16.838;2022-07-22T05:23:11;26.30;58.80
32366;DHT22;18837;46.832;16.838;2022-07-22T05:25:37;26.30;58.90
32366;DHT22;18837;46.832;16.838;2022-07-22T05:28:02;26.30;58.80
32366;DHT22;18837;46.832;16.838;2022-07-22T05:30:28;26.30;59.10
32366;DHT22;18837;46.832;16.838;2022-07-22T05:32:54;26.30;59.20
32366;DHT22;18837;46.832;16.838;2022-07-22T05:35:20;26.30;59.80
32366;DHT22;18837;46.832;16.838;2022-07-22T05:37:47;26.30;59.80
32366;DHT22;18837;46.832;16.838;2022-07-22T05:40:13;26.30;59.60
32366;DHT22;18837;46.832;16.838;2022-07-22T05:42:39;26.30;59.70
32366;DHT22;18837;46.832;16.838;2022-07-22T05:45:05;26.30;59.20
32366;DHT22;18837;46.832;16.838;2022-07-22T05:47:30;26.30;59.40
32366;DHT22;18837;46.832;16.838;2022-07-22T05:49:56;26.30;59.60
32366;DHT22;18837;46.832;16.838;2022-07-22T05:52:28;26.30;59.30
32366;DHT22;18837;46.832;16.838;2022-07-22T05:54:59;26.40;59.50
32366;DHT22;18837;46.832;16.838;2022-07-22T05:57:25;26.30;59.80
32366;DHT22;18837;46.832;16.838;2022-07-22T05:59:51;26.30;59.30
32366;DHT22;18837;46.832;16.838;2022-07-22T06:02:16;26.30;59.40
32366;DHT22;18837;46.832;16.838;2022-07-22T06:04:42;26.40;59.40
32366;DHT22;18837;46.832;16.838;2022-07-22T06:07:08;26.30;59.40
32366;DHT22;18837;46.832;16.838;2022-07-22T06:09:39;26.40;59.50
32366;DHT22;18837;46.832;16.838;2022-07-22T06:12:05;26.40;59.60
32366;DHT22;18837;46.832;16.838;2022-07-22T06:14:31;26.40;59.50
32366;DHT22;18837;46.832;16.838;2022-07-22T06:16:57;26.40;59.30
32366;DHT22;18837;46.832;16.838;2022-07-22T06:19:22;26.40;59.70
32366;DHT22;18837;46.832;16.838;2022-07-22T06:21:50;26.40;59.40
32366;DHT22;18837;46.832;16.838;2022-07-22T06:24:16;26.40;59.60
32366;DHT22;18837;46.832;16.838;2022-07-22T06:27:04;26.40;59.60
32366;DHT22;18837;46.832;16.838;2022-07-22T06:29:29;26.40;58.80
32366;DHT22;18837;46.832;16.838;2022-07-22T06:31:55;26.40;59.20
32366;DHT22;18837;46.832;16.838;2022-07-22T06:34:21;26.40;59.40
32366;DHT22;18837;46.832;16.838;2022-07-22T06:36:48;26.40;59.10
32366;DHT22;18837;46.832;16.838;2022-07-22T06:39:14;26.40;59.40
32366;DHT22;18837;46.832;16.838;2022-07-22T06:41:40;26.40;60.10
32366;DHT22;18837;46.832;16.838;2022-07-22T06:44:09;26.50;59.30
32366;DHT22;18837;46.832;16.838;2022-07-22T06:46:35;26.40;59.40
32366;DHT22;18837;46.832;16.838;2022-07-22T06:49:00;26.50;59.30
32366;DHT22;18837;46.832;16.838;2022-07-22T06:51:26;26.50;59.40
32366;DHT22;18837;46.832;16.838;2022-07-22T06:53:53;26.50;59.20
32366;DHT22;18837;46.832;16.838;2022-07-22T06:56:18;26.50;59.50
32366;DHT22;18837;46.832;16.838;2022-07-22T06:58:44;26.50;59.20
32366;DHT22;18837;46.832;16.838;2022-07-22T07:01:11;26.60;59.30
32366;DHT22;18837;46.832;16.838;2022-07-22T07:03:38;26.60;59.40
32366;DHT22;18837;46.832;16.838;2022-07-22T07:06:06;26.60;59.50
32366;DHT22;18837;46.832;16.838;2022-07-22T07:08:32;26.60;59.40
32366;DHT22;18837;46.832;16.838;2022-07-22T07:10:58;26.60;59.20
32366;DHT22;18837;46.832;16.838;2022-07-22T07:13:24;26.60;59.20
32366;DHT22;18837;46.832;16.838;2022-07-22T07:15:50;26.60;59.50
32366;DHT22;18837;46.832;16.838;2022-07-22T07:18:15;26.60;59.60
32366;DHT22;18837;46.832;16.838;2022-07-22T07:20:41;26.70;59.30
32366;DHT22;18837;46.832;16.838;2022-07-22T07:23:07;26.70;59.40
32366;DHT22;18837;46.832;16.838;2022-07-22T07:25:33;26.70;59.40
32366;DHT22;18837;46.832;16.838;2022-07-22T07:27:59;26.70;59.20
32366;DHT22;18837;46.832;16.838;2022-07-22T07:30:25;26.70;59.20
32366;DHT22;18837;46.832;16.838;2022-07-22T07:32:50;26.70;59.20
32366;DHT22;18837;46.832;16.838;2022-07-22T07:35:16;26.70;59.70
32366;DHT22;18837;46.832;16.838;2022-07-22T07:37:42;26.80;59.20
32366;DHT22;18837;46.832;16.838;2022-07-22T07:40:08;26.80;59.30
32366;DHT22;18837;46.832;16.838;2022-07-22T07:42:35;26.90;59.30
32366;DHT22;18837;46.832;16.838;2022-07-22T07:45:00;26.90;59.20
32366;DHT22;18837;46.832;16.838;2022-07-22T07:47:26;27.00;59.10
32366;DHT22;18837;46.832;16.838;2022-07-22T07:49:52;27.00;59.30
32366;DHT22;18837;46.832;16.838;2022-07-22T07:52:17;27.10;59.00
32366;DHT22;18837;46.832;16.838;2022-07-22T07:54:44;27.10;59.00
32366;DHT22;18837;46.832;16.838;2022-07-22T07:57:10;27.10;59.70
32366;DHT22;18837;46.832;16.838;2022-07-22T07:59:40;27.10;58.90
32366;DHT22;18837;46.832;16.838;2022-07-22T08:02:07;27.20;59.00
32366;DHT22;18837;46.832;16.838;2022-07-22T08:04:34;27.30;59.00
32366;DHT22;18837;46.832;16.838;2022-07-22T08:06:59;27.30;59.00
32366;DHT22;18837;46.832;16.838;2022-07-22T08:09:26;27.40;59.00
32366;DHT22;18837;46.832;16.838;2022-07-22T08:11:55;27.40;58.80
32366;DHT22;18837;46.832;16.838;2022-07-22T08:14:20;27.50;58.80
32366;DHT22;18837;46.832;16.838;2022-07-22T08:16:46;27.50;58.80
32366;DHT22;18837;46.832;16.838;2022-07-22T08:19:12;27.60;58.70
32366;DHT22;18837;46.832;16.838;2022-07-22T08:21:38;27.60;58.70
32366;DHT22;18837;46.832;16.838;2022-07-22T08:24:03;27.70;58.70
32366;DHT22;18837;46.832;16.838;2022-07-22T08:26:29;27.80;58.60
32366;DHT22;18837;46.832;16.838;2022-07-22T08:28:55;27.80;58.40
32366;DHT22;18837;46.832;16.838;2022-07-22T08:31:21;27.90;58.40
32366;DHT22;18837;46.832;16.838;2022-07-22T08:33:46;28.00;58.50
32366;DHT22;18837;46.832;16.838;2022-07-22T08:36:12;28.10;58.60
32366;DHT22;18837;46.832;16.838;2022-07-22T08:38:38;28.10;58.50
32366;DHT22;18837;46.832;16.838;2022-07-22T08:41:04;28.20;58.50
32366;DHT22;18837;46.832;16.838;2022-07-22T08:43:31;28.20;58.30
32366;DHT22;18837;46.832;16.838;2022-07-22T08:45:59;28.30;58.30
32366;DHT22;18837;46.832;16.838;2022-07-22T08:48:25;28.30;58.10
32366;DHT22;18837;46.832;16.838;2022-07-22T08:50:51;28.40;58.10
32366;DHT22;18837;46.832;16.838;2022-07-22T08:53:17;28.50;58.20
32366;DHT22;18837;46.832;16.838;2022-07-22T08:55:46;28.60;58.30
32366;DHT22;18837;46.832;16.838;2022-07-22T08:58:13;28.60;58.00
32366;DHT22;18837;46.832;16.838;2022-07-22T09:00:40;28.60;57.90
32366;DHT22;18837;46.832;16.838;2022-07-22T09:03:24;28.70;57.90
32366;DHT22;18837;46.832;16.838;2022-07-22T09:05:53;28.70;57.80
32366;DHT22;18837;46.832;16.838;2022-07-22T09:08:20;28.70;57.70
32366;DHT22;18837;46.832;16.838;2022-07-22T09:10:46;28.80;57.40
32366;DHT22;18837;46.832;16.838;2022-07-22T09:13:13;28.80;57.60
32366;DHT22;18837;46.832;16.838;2022-07-22T09:15:53;28.90;57.60
32366;DHT22;18837;46.832;16.838;2022-07-22T09:18:20;28.90;57.60
32366;DHT22;18837;46.832;16.838;2022-07-22T09:20:46;29.00;57.20
32366;DHT22;18837;46.832;16.838;2022-07-22T09:23:14;29.00;57.50
32366;DHT22;18837;46.832;16.838;2022-07-22T09:25:41;29.10;57.50
32366;DHT22;18837;46.832;16.838;2022-07-22T09:30:37;29.20;57.50
32366;DHT22;18837;46.832;16.838;2022-07-22T09:33:05;29.20;57.50
32366;DHT22;18837;46.832;16.838;2022-07-22T09:35:31;29.30;57.60
32366;DHT22;18837;46.832;16.838;2022-07-22T09:38:00;29.30;57.50
32366;DHT22;18837;46.832;16.838;2022-07-22T09:40:34;29.40;57.30
32366;DHT22;18837;46.832;16.838;2022-07-22T09:43:05;29.40;57.80
32366;DHT22;18837;46.832;16.838;2022-07-22T09:45:33;29.40;57.50
32366;DHT22;18837;46.832;16.838;2022-07-22T09:48:00;29.50;57.40
32366;DHT22;18837;46.832;16.838;2022-07-22T09:50:27;29.50;57.50
32366;DHT22;18837;46.832;16.838;2022-07-22T09:52:56;29.50;58.00
32366;DHT22;18837;46.832;16.838;2022-07-22T09:55:23;29.60;57.60
32366;DHT22;18837;46.832;16.838;2022-07-22T09:57:50;29.70;57.80
32366;DHT22;18837;46.832;16.838;2022-07-22T10:00:19;29.80;57.60
32366;DHT22;18837;46.832;16.838;2022-07-22T10:05:13;29.90;58.10
32366;DHT22;18837;46.832;16.838;2022-07-22T10:07:46;29.90;57.70
32366;DHT22;18837;46.832;16.838;2022-07-22T10:10:19;29.90;57.90
32366;DHT22;18837;46.832;16.838;2022-07-22T10:12:48;30.00;57.80
32366;DHT22;18837;46.832;16.838;2022-07-22T10:15:14;30.10;57.10
32366;DHT22;18837;46.832;16.838;2022-07-22T10:17:47;30.10;57.40
32366;DHT22;18837;46.832;16.838;2022-07-22T10:20:17;30.30;57.90
32366;DHT22;18837;46.832;16.838;2022-07-22T10:22:46;30.30;57.50
32366;DHT22;18837;46.832;16.838;2022-07-22T10:25:15;30.40;57.80
32366;DHT22;18837;46.832;16.838;2022-07-22T10:28:00;30.40;57.40
32366;DHT22;18837;46.832;16.838;2022-07-22T10:30:36;30.50;57.40
32366;DHT22;18837;46.832;16.838;2022-07-22T10:33:20;30.50;57.10
32366;DHT22;18837;46.832;16.838;2022-07-22T10:35:54;30.60;57.00
32366;DHT22;18837;46.832;16.838;2022-07-22T10:38:20;30.70;57.50
32366;DHT22;18837;46.832;16.838;2022-07-22T10:43:18;30.80;57.30
32366;DHT22;18837;46.832;16.838;2022-07-22T10:48:23;30.90;57.80
32366;DHT22;18837;46.832;16.838;2022-07-22T10:54:00;31.00;57.70
32366;DHT22;18837;46.832;16.838;2022-07-22T10:56:31;31.00;57.60
32366;DHT22;18837;46.832;16.838;2022-07-22T11:01:36;31.10;57.80
32366;DHT22;18837;46.832;16.838;2022-07-22T11:04:25;31.10;57.30
32366;DHT22;18837;46.832;16.838;2022-07-22T11:06:53;31.20;57.10
32366;DHT22;18837;46.832;16.838;2022-07-22T11:09:22;31.30;57.40
32366;DHT22;18837;46.832;16.838;2022-07-22T11:11:53;31.30;56.60
32366;DHT22;18837;46.832;16.838;2022-07-22T11:14:29;31.40;56.90
32366;DHT22;18837;46.832;16.838;2022-07-22T11:17:07;31.50;55.80
32366;DHT22;18837;46.832;16.838;2022-07-22T11:19:35;31.60;56.70
32366;DHT22;18837;46.832;16.838;2022-07-22T11:22:13;31.60;56.20
32366;DHT22;18837;46.832;16.838;2022-07-22T11:24:41;31.60;56.10
32366;DHT22;18837;46.832;16.838;2022-07-22T11:27:17;31.60;56.00
32366;DHT22;18837;46.832;16.838;2022-07-22T11:29:43;31.60;55.90
32366;DHT22;18837;46.832;16.838;2022-07-22T11:32:13;31.70;56.00
32366;DHT22;18837;46.832;16.838;2022-07-22T11:34:42;31.70;56.00
32366;DHT22;18837;46.832;16.838;2022-07-22T11:37:15;31.60;57.00
32366;DHT22;18837;46.832;16.838;2022-07-22T11:39:41;31.70;56.30
32366;DHT22;18837;46.832;16.838;2022-07-22T11:42:07;31.70;56.10
32366;DHT22;18837;46.832;16.838;2022-07-22T11:44:35;31.70;56.20
32366;DHT22;18837;46.832;16.838;2022-07-22T11:47:02;31.80;55.80
32366;DHT22;18837;46.832;16.838;2022-07-22T11:49:30;31.90;55.70
32366;DHT22;18837;46.832;16.838;2022-07-22T11:51:59;31.90;55.60
32366;DHT22;18837;46.832;16.838;2022-07-22T11:54:25;31.90;55.70
32366;DHT22;18837;46.832;16.838;2022-07-22T11:56:51;31.90;55.00
32366;DHT22;18837;46.832;16.838;2022-07-22T11:59:17;32.00;55.10
32366;DHT22;18837;46.832;16.838;2022-07-22T12:01:44;32.00;55.30
32366;DHT22;18837;46.832;16.838;2022-07-22T12:04:13;32.10;54.90
32366;DHT22;18837;46.832;16.838;2022-07-22T12:06:42;32.10;55.40
32366;DHT22;18837;46.832;16.838;2022-07-22T12:09:09;32.20;55.30
32366;DHT22;18837;46.832;16.838;2022-07-22T12:11:47;32.20;55.10
32366;DHT22;18837;46.832;16.838;2022-07-22T12:14:18;32.20;55.00
32366;DHT22;18837;46.832;16.838;2022-07-22T12:19:23;32.20;55.40
32366;DHT22;18837;46.832;16.838;2022-07-22T12:22:05;32.20;54.80
32366;DHT22;18837;46.832;16.838;2022-07-22T12:27:00;32.30;54.90
32366;DHT22;18837;46.832;16.838;2022-07-22T12:29:41;32.40;54.70
32366;DHT22;18837;46.832;16.838;2022-07-22T12:32:23;32.40;54.40
32366;DHT22;18837;46.832;16.838;2022-07-22T12:40:06;32.50;53.80
32366;DHT22;18837;46.832;16.838;2022-07-22T12:42:35;32.50;53.80
32366;DHT22;18837;46.832;16.838;2022-07-22T12:45:03;32.60;53.50
32366;DHT22;18837;46.832;16.838;2022-07-22T12:47:56;32.60;53.10
32366;DHT22;18837;46.832;16.838;2022-07-22T12:53:15;32.70;53.80
32366;DHT22;18837;46.832;16.838;2022-07-22T12:55:47;32.70;53.80
32366;DHT22;18837;46.832;16.838;2022-07-22T12:58:14;32.60;53.40
32366;DHT22;18837;46.832;16.838;2022-07-22T13:00:43;32.60;53.40
32366;DHT22;18837;46.832;16.838;2022-07-22T13:03:09;32.60;53.60
32366;DHT22;18837;46.832;16.838;2022-07-22T13:05:35;32.70;54.00
32366;DHT22;18837;46.832;16.838;2022-07-22T13:08:02;32.70;53.60
32366;DHT22;18837;46.832;16.838;2022-07-22T13:10:29;32.70;53.40
32366;DHT22;18837;46.832;16.838;2022-07-22T13:12:55;32.70;53.50
32366;DHT22;18837;46.832;16.838;2022-07-22T13:15:21;32.80;53.10
32366;DHT22;18837;46.832;16.838;2022-07-22T13:17:48;32.80;52.80
32366;DHT22;18837;46.832;16.838;2022-07-22T13:20:15;32.90;52.90
32366;DHT22;18837;46.832;16.838;2022-07-22T13:22:45;33.00;52.60
32366;DHT22;18837;46.832;16.838;2022-07-22T13:25:11;33.00;52.50
32366;DHT22;18837;46.832;16.838;2022-07-22T13:27:37;33.00;52.40
32366;DHT22;18837;46.832;16.838;2022-07-22T13:30:04;33.00;52.60
32366;DHT22;18837;46.832;16.838;2022-07-22T13:32:30;33.00;52.40
32366;DHT22;18837;46.832;16.838;2022-07-22T13:34:56;33.00;52.30
32366;DHT22;18837;46.832;16.838;2022-07-22T13:37:22;33.00;52.50
32366;DHT22;18837;46.832;16.838;2022-07-22T13:39:48;33.00;52.10
32366;DHT22;18837;46.832;16.838;2022-07-22T13:42:15;33.10;52.40
32366;DHT22;18837;46.832;16.838;2022-07-22T13:44:44;33.00;53.10
32366;DHT22;18837;46.832;16.838;2022-07-22T13:47:10;33.10;52.10
32366;DHT22;18837;46.832;16.838;2022-07-22T13:49:36;33.10;52.00
32366;DHT22;18837;46.832;16.838;2022-07-22T13:52:02;33.20;52.00
32366;DHT22;18837;46.832;16.838;2022-07-22T13:54:28;33.20;51.80
32366;DHT22;18837;46.832;16.838;2022-07-22T13:56:54;33.30;51.90
32366;DHT22;18837;46.832;16.838;2022-07-22T13:59:20;33.20;51.70
32366;DHT22;18837;46.832;16.838;2022-07-22T14:01:48;33.30;51.70
32366;DHT22;18837;46.832;16.838;2022-07-22T14:04:14;33.30;51.50
32366;DHT22;18837;46.832;16.838;2022-07-22T14:06:40;33.40;51.50
32366;DHT22;18837;46.832;16.838;2022-07-22T14:09:05;33.40;51.20
32366;DHT22;18837;46.832;16.838;2022-07-22T14:11:34;33.40;51.30
32366;DHT22;18837;46.832;16.838;2022-07-22T14:14:00;33.40;51.80
32366;DHT22;18837;46.832;16.838;2022-07-22T14:16:26;33.40;51.50
32366;DHT22;18837;46.832;16.838;2022-07-22T14:19:08;33.40;51.70
32366;DHT22;18837;46.832;16.838;2022-07-22T14:21:35;33.50;51.70
32366;DHT22;18837;46.832;16.838;2022-07-22T14:24:03;33.50;51.30
32366;DHT22;18837;46.832;16.838;2022-07-22T14:26:30;33.50;50.10
32366;DHT22;18837;46.832;16.838;2022-07-22T14:28:56;33.60;49.70
32366;DHT22;18837;46.832;16.838;2022-07-22T14:31:22;33.60;50.00
32366;DHT22;18837;46.832;16.838;2022-07-22T14:33:48;33.60;50.40
32366;DHT22;18837;46.832;16.838;2022-07-22T14:36:14;33.60;50.50
32366;DHT22;18837;46.832;16.838;2022-07-22T14:38:40;33.60;50.90
32366;DHT22;18837;46.832;16.838;2022-07-22T14:41:06;33.60;50.80
32366;DHT22;18837;46.832;16.838;2022-07-22T14:43:33;33.60;51.10
32366;DHT22;18837;46.832;16.838;2022-07-22T14:45:59;33.60;51.10
32366;DHT22;18837;46.832;16.838;2022-07-22T14:48:26;33.60;50.50
32366;DHT22;18837;46.832;16.838;2022-07-22T14:50:54;33.60;50.70
32366;DHT22;18837;46.832;16.838;2022-07-22T14:53:20;33.60;50.80
32366;DHT22;18837;46.832;16.838;2022-07-22T14:55:45;33.70;51.20
32366;DHT22;18837;46.832;16.838;2022-07-22T14:58:11;33.70;50.90
32366;DHT22;18837;46.832;16.838;2022-07-22T15:00:37;33.70;50.90
32366;DHT22;18837;46.832;16.838;2022-07-22T15:03:02;33.70;50.70
32366;DHT22;18837;46.832;16.838;2022-07-22T15:05:28;33.70;51.20
32366;DHT22;18837;46.832;16.838;2022-07-22T15:07:54;33.70;50.90
32366;DHT22;18837;46.832;16.838;2022-07-22T15:10:20;33.70;51.50
32366;DHT22;18837;46.832;16.838;2022-07-22T15:12:45;33.70;51.20
32366;DHT22;18837;46.832;16.838;2022-07-22T15:15:11;33.70;51.10
32366;DHT22;18837;46.832;16.838;2022-07-22T15:17:38;33.70;51.30
32366;DHT22;18837;46.832;16.838;2022-07-22T15:20:05;33.80;50.80
32366;DHT22;18837;46.832;16.838;2022-07-22T15:22:31;33.80;50.60
32366;DHT22;18837;46.832;16.838;2022-07-22T15:24:57;33.80;51.10
32366;DHT22;18837;46.832;16.838;2022-07-22T15:27:23;33.80;50.70
32366;DHT22;18837;46.832;16.838;2022-07-22T15:29:49;33.80;51.20
32366;DHT22;18837;46.832;16.838;2022-07-22T15:32:15;33.80;51.20
32366;DHT22;18837;46.832;16.838;2022-07-22T15:34:41;33.80;51.30
32366;DHT22;18837;46.832;16.838;2022-07-22T15:37:07;33.80;50.20
32366;DHT22;18837;46.832;16.838;2022-07-22T15:39:33;33.80;50.80
32366;DHT22;18837;46.832;16.838;2022-07-22T15:41:59;33.80;50.60
32366;DHT22;18837;46.832;16.838;2022-07-22T15:44:25;33.80;51.10